Waldorf, MD (20601)

4:17 AM EDT en Abril 21, 2015 (GMT -0400)
Greensward Turf Farm | | Change Station
CLOSE
Current Station
Estación meteorológica personal
Location: Waldorf, MD
Altura: 219 ft
Estaciones meteorológicas cercanas

Alt 219 ft 38.65 °N, 76.93 °W | Updated 9 minutes ago

Muy nublado
Muy nublado
57.6 ° F
Sensación térmica 57.6 ° F
N
1.0
Viento Variable Viento desde NE
Gusts 1.0 mph

Hoy
Alta -- | Baja -- ° F
--% Posibilidad de precipitaciones
Ayer
Alta -- | Baja -- ° F
Precip. -- pul
6:23 AM 7:49 PM
Creciente, 9% visible
Presión 29.65 pul
Visibilidad 10.0 Millas
Nubes Nubes dispersas 11000 ft
Punto de rocío 56 ° F
Humedad 95%
Precipitaciones 0.00 pul
Espesor de la nieve No disponible.
UV 0 de una escala de 12
Polen 4.30 de una escala de 12
Calidad del aire No disponible.
Flu Activity Regional
METAR KADW 210758Z AUTO 30007KT 10SM SCT110 15/15 A2963 RMK AO2 SLP039 T01480146

More Conditions Fewer Conditions

Presión 29.65 pul
Visibilidad 10.0 Millas
Nubes Nubes dispersas 11000 ft
Punto de rocío 56 ° F
Humedad 95%
Precipitaciones 0.00 pul
Espesor de la nieve No disponible.
UV 0 de una escala de 12
Polen 4.30 de una escala de 12
Calidad del aire No disponible.
Flu Activity Regional
METAR KADW 210758Z AUTO 30007KT 10SM SCT110 15/15 A2963 RMK AO2 SLP039 T01480146

More Conditions Fewer Conditions

10-Day Weather Forecast

Almanac

Astronomía

Apr. 21, 2015 Salida Puesta
Hora real
Crepúsculo civil
Crepúsculo náutico
Crepúsculo astronómico
Luna
Horas de luz
Horas de luz
Tomorrow will be .
, % of the Moon is Illuminated

Extremos de hoy

Máximos del estado Bajos del estado

Community

WunderPhotos

Upload Photos

1,815,329 ¡fotos cargadas!

WunderBlogs® & News

Nearby

Calidad del aire

  Calidad del aire Índice AQ Contaminante
Not available.

Grosos de nieve

Estación Profundido Altura

Actividad de terremotos

Ciudad Distance Mag. Tiempo y dato
Magnitud mínima muestra es 2,5.

Temperaturas de aguas costeras

Lugar Temperatura

Stations

Estaciones meteorológicas cercanas

Ubicación de la estación Temp. Vientos helados Punto de rocío Humedad Viento Precip. Alt Actualizado Tipo